• Join FlightAware (Why Join?)
  • Login
  • US Flag 
02:38AM EDT


 

Airport Tracker/Info


-or-


 

Live Flight TrackerFlight Track Log ✈ SKW5631 ✈ 27-Apr-2013 ✈ KSFO - KPSP

Flight Track Log - Related Links

Times and Time Zones

All times are in EDT time to prevent confusion due to time zone crossing. See the SKW5631 flight status page for this flight to view local times or setup timezone preferences in your user account.

Time Position Orientation Groundspeed Altitude Reporting Facility
EDT Latitude Longitude Course Direction KTS MPH feet Rate Location/Type
02:30PM 37.6833 -122.3667 133° Southeast 197 227 2,300  Level Northern Cal TRACON
02:30PM 37.6964 -122.3636 10° North 199 229 2,900 2,160 Climbing Oakland Center
02:31PM 37.7167 -122.4000 305° West 257 296 4,300 2,880 Climbing Northern Cal TRACON
02:32PM 37.6833 -122.4500 230° Southwest 264 304 7,300 2,700 Climbing Northern Cal TRACON
02:33PM 37.6000 -122.4667 189° South 283 326 9,800 2,040 Climbing Northern Cal TRACON
02:33PM 37.5639 -122.4617 174° South 285 328 10,500 1,440 Climbing Oakland Center
02:34PM 37.5031 -122.3742 131° Southeast 345 397 12,100 2,040 Climbing Oakland Center
02:35PM 37.2396 -122.0694 133° Southeast  Level FlightAware Approximate
02:35PM 37.4294 -122.2569 128° Southeast 360 414 14,800  Level Oakland Center
02:36PM 37.3650 -122.1539 128° Southeast 373 429 16,900 1,800 Climbing Oakland Center
02:37PM 37.2975 -122.0467 128° Southeast 389 448 18,500 1,560 Climbing Oakland Center
02:38PM 37.2289 -121.9383 128° Southeast 398 458 20,200 1,560 Climbing Oakland Center
02:39PM 37.1475 -121.8347 135° Southeast 418 481 21,800 1,560 Climbing Oakland Center
02:40PM 37.0519 -121.7481 144° Southeast 423 487 23,400 1,560 Climbing Oakland Center
02:41PM 36.9542 -121.6586 144° Southeast 434 499 25,000 1,440 Climbing Oakland Center
02:42PM 36.8594 -121.5650 142° Southeast 435 501 26,400 960 Climbing Oakland Center
02:43PM 36.7553 -121.4600 141° Southeast 449 517 27,000 540 Climbing Oakland Center
02:44PM 36.6611 -121.3478 136° Southeast 466 536 27,600 780 Climbing Oakland Center
02:45PM 36.5839 -121.2153 126° Southeast 475 547 28,700 1,140 Climbing Oakland Center
02:46PM 36.4917 -121.0578 126° Southeast 471 542 30,000 1,020 Climbing Oakland Center
02:47PM 36.4139 -120.9278 127° Southeast 469 540 30,900 480 Climbing Oakland Center
02:48PM 36.3353 -120.7978 127° Southeast 471 542 31,000  Climbing Oakland Center
02:50PM 36.2553 -120.6642 127° Southeast 478 550 31,000  Level Oakland Center
02:51PM 36.1747 -120.5306 127° Southeast 482 555 31,000  Level Oakland Center
02:52PM 36.0928 -120.3931 126° Southeast 499 574 31,000  Level Oakland Center
02:53PM 36.0117 -120.2592 127° Southeast 484 557 31,000  Level Oakland Center
02:54PM 35.9303 -120.1283 128° Southeast 480 552 31,000  Level Oakland Center
02:55PM 35.8483 -119.9931 127° Southeast 487 560 31,000  Level Oakland Center
02:56PM 35.7664 -119.8608 127° Southeast 485 558 31,000  Level Oakland Center
02:57PM 35.6675 -119.7003 127° Southeast 486 559 31,000  Level Oakland Center
02:58PM 35.5850 -119.5683 128° Southeast 485 558 31,000  Level Oakland Center
02:59PM 35.5031 -119.4369 127° Southeast 483 556 31,000  Level Oakland Center
03:00PM 35.4206 -119.3039 127° Southeast 487 560 31,000  Level Oakland Center
03:00PM 35.4053 -119.2786 127° Southeast 488 562 31,000  Level Los Angeles Center
03:01PM 35.3244 -119.1489 127° Southeast 484 557 31,000  Level Los Angeles Center
03:02PM 35.2425 -119.0178 127° Southeast 483 556 31,000 -60 Level Los Angeles Center
03:03PM 35.1414 -118.8608 128° Southeast 489 563 30,900 -420 Descending Los Angeles Center
03:04PM 35.0589 -118.7308 128° Southeast 485 558 30,200 -1,200 Descending Los Angeles Center
03:05PM 34.9775 -118.6028 128° Southeast 480 552 28,500 -1,500 Descending Los Angeles Center
03:06PM 34.8992 -118.4814 128° Southeast 475 547 27,100 -1,500 Descending Los Angeles Center
03:07PM 34.8150 -118.3522 128° Southeast 484 557 25,500 -1,500 Descending Los Angeles Center
03:08PM 34.7336 -118.2231 127° Southeast 481 554 24,000 -1,260 Descending Los Angeles Center
03:09PM 34.6378 -118.0764 128° Southeast 472 543 23,000 -780 Descending Los Angeles Center
03:10PM 34.5778 -117.9472 119° Southeast 448 516 22,500 -840 Descending Los Angeles Center
03:11PM 34.5161 -117.8158 120° Southeast 452 520 21,300 -1,200 Descending Los Angeles Center
03:12PM 34.4561 -117.6853 119° Southeast 448 516 20,100 -1,260 Descending Los Angeles Center
03:13PM 34.3864 -117.5331 119° Southeast 435 501 18,700 -1,200 Descending Los Angeles Center
03:15PM 34.3278 -117.4017 118° Southeast 418 481 17,700 -780 Descending Los Angeles Center
03:16PM 34.2706 -117.2800 120° Southeast 416 479 17,100 -840 Descending Los Angeles Center
03:17PM 34.2208 -117.1733 119° Southeast 405 466 16,000 -960 Descending Los Angeles Center
03:18PM 34.1683 -117.0631 120° Southeast 384 442 15,200 -660 Descending Los Angeles Center
03:19PM 34.1228 -116.9672 120° Southeast 342 394 14,700 -540 Descending Los Angeles Center
03:20PM 34.0692 -116.8486 119° Southeast 335 386 14,100 -300 Descending Los Angeles Center
03:21PM 34.0203 -116.7436 119° Southeast 351 404 14,100 -120 Level Los Angeles Center
03:22PM 33.9811 -116.6631 120° Southeast 351 404 13,900 -1,200 Descending Los Angeles Center
03:23PM 33.9328 -116.5428 116° Southeast 337 388 11,700 -2,100 Descending Los Angeles Center
03:24PM 33.9017 -116.4456 111° Southeast 307 353 9,600 -2,340 Descending Los Angeles Center
03:25PM 33.8317 -116.3375 128° Southeast 217 250 5,900 -1,500 Descending Los Angeles Center
03:26PM 33.7828 -116.2956 145° Southeast 223 257 6,000 -1,080 Climbing Los Angeles Center
03:28PM 33.7667 -116.4167 261° West 155 178 2,600 -1,440 Descending Southern California TRACON
03:29PM 33.7833 -116.4667 292° West 150 173 1,500 -900 Descending Southern California TRACON
03:30PM 33.8167 -116.5000 320° Northwest 145 167 800 -720 Descending Southern California TRACON
03:32PM 33.8297 -116.5067 105° East  Level Estimated
03:39PM 33.8297 -116.5067 286° West  Level Estimated